createdAt,value
2023-05-18T00:00:04.693Z,0.4819
2023-05-18T00:01:07.400Z,0.4815
2023-05-18T00:02:08.076Z,0.4806
2023-05-18T00:03:10.924Z,0.4805
2023-05-18T00:04:11.272Z,0.4801
2023-05-18T00:05:12.990Z,0.4798
2023-05-18T00:06:14.550Z,0.4794
2023-05-18T00:07:16.368Z,0.4791
2023-05-18T00:08:17.918Z,0.4797
2023-05-18T00:09:19.607Z,0.4798
2023-05-18T00:10:21.272Z,0.4792
2023-05-18T00:11:23.720Z,0.4794
2023-05-18T00:12:24.518Z,0.4800
2023-05-18T00:13:26.837Z,0.4792
2023-05-18T00:14:27.708Z,0.4800
2023-05-18T00:15:29.648Z,0.4806
2023-05-18T00:16:31.126Z,0.4793
2023-05-18T00:17:32.711Z,0.4794
2023-05-18T00:18:34.458Z,0.4790
2023-05-18T00:19:35.972Z,0.4790
2023-05-18T00:20:37.663Z,0.4790
2023-05-18T00:21:39.371Z,0.4780
2023-05-18T00:22:40.964Z,0.4796
2023-05-18T00:23:42.607Z,0.4798
2023-05-18T00:24:44.247Z,0.4797
2023-05-18T00:25:45.852Z,0.4803
2023-05-18T00:26:47.491Z,0.4808
2023-05-18T00:27:49.238Z,0.4792
2023-05-18T00:28:50.812Z,0.4774
2023-05-18T00:29:52.450Z,0.4779
2023-05-18T00:30:54.057Z,0.4777
2023-05-18T00:31:55.773Z,0.4778
2023-05-18T00:32:57.459Z,0.4767
2023-05-18T00:33:58.998Z,0.4753
2023-05-18T00:35:00.602Z,0.4739
2023-05-18T00:36:02.380Z,0.4734
2023-05-18T00:37:03.928Z,0.4736
2023-05-18T00:38:05.676Z,0.4746
2023-05-18T00:39:07.218Z,0.4744
2023-05-18T00:40:08.938Z,0.4727
2023-05-18T00:41:10.495Z,0.4716
2023-05-18T00:42:12.206Z,0.4705
2023-05-18T00:43:13.813Z,0.4715
2023-05-18T00:44:15.450Z,0.4699
2023-05-18T00:45:17.198Z,0.4693
2023-05-18T00:46:18.839Z,0.4691
2023-05-18T00:47:20.394Z,0.4677
2023-05-18T00:48:22.152Z,0.4677
2023-05-18T00:49:23.672Z,0.4679
2023-05-18T00:50:25.460Z,0.4687
2023-05-18T00:51:27.073Z,0.4683
2023-05-18T00:52:28.618Z,0.4675
2023-05-18T00:53:30.276Z,0.4661
2023-05-18T00:54:31.926Z,0.4657
2023-05-18T00:55:33.763Z,0.4661
2023-05-18T00:56:35.212Z,0.4670
2023-05-18T00:57:37.748Z,0.4674
2023-05-18T00:58:38.524Z,0.4669
2023-05-18T00:59:40.120Z,0.4667
2023-05-18T01:00:41.797Z,0.4662
2023-05-18T01:01:43.804Z,0.4660
2023-05-18T01:02:45.363Z,0.4639
2023-05-18T01:03:46.852Z,0.4654
2023-05-18T01:04:48.400Z,0.4641
2023-05-18T01:05:49.984Z,0.4650
2023-05-18T01:06:51.676Z,0.4640
2023-05-18T01:07:53.324Z,0.4639
2023-05-18T01:08:55.012Z,0.4630
2023-05-18T01:09:56.639Z,0.4618
2023-05-18T01:10:58.349Z,0.4594
2023-05-18T01:11:59.887Z,0.4589
2023-05-18T01:13:01.554Z,0.4585
2023-05-18T01:14:03.226Z,0.4576
2023-05-18T01:15:04.877Z,0.4573
2023-05-18T01:16:06.536Z,0.4585
2023-05-18T01:17:08.160Z,0.4580
2023-05-18T01:18:09.832Z,0.4576
2023-05-18T01:19:11.570Z,0.4570
2023-05-18T01:20:13.153Z,0.4556
2023-05-18T01:21:14.763Z,0.4553
2023-05-18T01:22:16.376Z,0.4556
2023-05-18T01:23:18.116Z,0.4561
2023-05-18T01:24:19.636Z,0.4567
2023-05-18T01:25:21.315Z,0.4575
2023-05-18T01:26:22.936Z,0.4591
2023-05-18T01:27:24.614Z,0.4619
2023-05-18T01:28:26.208Z,0.4600
2023-05-18T01:29:27.929Z,0.4597
2023-05-18T01:30:29.561Z,0.4588
2023-05-18T01:31:31.220Z,0.4585
2023-05-18T01:32:32.862Z,0.4580
2023-05-18T01:33:34.459Z,0.4574
2023-05-18T01:34:36.158Z,0.4574
2023-05-18T01:35:37.760Z,0.4559
2023-05-18T01:36:39.379Z,0.4560
2023-05-18T01:37:41.077Z,0.4567
2023-05-18T01:38:44.321Z,0.4569
2023-05-18T01:39:44.413Z,0.4573
2023-05-18T01:40:45.983Z,0.4579
2023-05-18T01:41:47.673Z,0.4585
2023-05-18T01:42:49.290Z,0.4577
2023-05-18T01:43:50.953Z,0.4593
2023-05-18T01:44:52.647Z,0.4596
2023-05-18T01:45:54.318Z,0.4598
2023-05-18T01:46:55.868Z,0.4599
2023-05-18T01:47:57.618Z,0.4590
2023-05-18T01:48:59.166Z,0.4591
2023-05-18T01:50:00.874Z,0.4596
2023-05-18T01:51:02.518Z,0.4611
2023-05-18T01:52:04.801Z,0.4614
2023-05-18T01:53:05.845Z,0.4621
2023-05-18T01:54:07.438Z,0.4619
2023-05-18T01:55:09.111Z,0.4619
2023-05-18T01:56:10.706Z,0.4613
2023-05-18T01:57:12.399Z,0.4600
2023-05-18T01:58:14.053Z,0.4598
2023-05-18T01:59:15.627Z,0.4590
2023-05-18T02:00:17.321Z,0.4587
2023-05-18T02:01:18.945Z,0.4595
2023-05-18T02:02:21.440Z,0.4599
2023-05-18T02:03:22.368Z,0.4598
2023-05-18T02:04:23.900Z,0.4593
2023-05-18T02:05:25.571Z,0.4606
2023-05-18T02:06:27.268Z,0.4617
2023-05-18T02:07:28.831Z,0.4621
2023-05-18T02:08:30.482Z,0.4636
2023-05-18T02:09:32.224Z,0.4632
2023-05-18T02:10:33.856Z,0.4623
2023-05-18T02:11:35.444Z,0.4618
2023-05-18T02:12:37.049Z,0.4606
2023-05-18T02:13:38.691Z,0.4591
2023-05-18T02:14:40.388Z,0.4588
2023-05-18T02:15:42.000Z,0.4598
2023-05-18T02:16:43.781Z,0.4592
2023-05-18T02:17:45.281Z,0.4587
2023-05-18T02:18:46.996Z,0.4577
2023-05-18T02:19:48.590Z,0.4585
2023-05-18T02:20:50.271Z,0.4586
2023-05-18T02:21:52.836Z,0.4591
2023-05-18T02:22:53.521Z,0.4599
2023-05-18T02:23:55.155Z,0.4601
2023-05-18T02:24:56.850Z,0.4596
2023-05-18T02:25:58.518Z,0.4595
2023-05-18T02:27:00.204Z,0.4588
2023-05-18T02:28:01.736Z,0.4586
2023-05-18T02:29:03.496Z,0.4596
2023-05-18T02:30:05.086Z,0.4569
2023-05-18T02:31:06.744Z,0.4565
2023-05-18T02:32:08.384Z,0.4559
2023-05-18T02:33:10.161Z,0.4548
2023-05-18T02:34:11.724Z,0.4560
2023-05-18T02:35:14.397Z,0.4556
2023-05-18T02:36:15.020Z,0.4545
2023-05-18T02:37:16.713Z,0.4535
2023-05-18T02:38:18.334Z,0.4533
2023-05-18T02:39:19.969Z,0.4531
2023-05-18T02:40:21.622Z,0.4515
2023-05-18T02:41:23.349Z,0.4522
2023-05-18T02:42:24.922Z,0.4514
2023-05-18T02:43:26.583Z,0.4512
2023-05-18T02:44:28.194Z,0.4510
2023-05-18T02:45:30.115Z,0.4518
2023-05-18T02:46:31.586Z,0.4522
2023-05-18T02:47:33.404Z,0.4527
2023-05-18T02:48:34.776Z,0.4531
2023-05-18T02:49:36.468Z,0.4545
2023-05-18T02:50:38.047Z,0.4558
2023-05-18T02:51:39.876Z,0.4563
2023-05-18T02:52:42.337Z,0.4559
2023-05-18T02:53:43.027Z,0.4559
2023-05-18T02:54:44.654Z,0.4546
2023-05-18T02:55:46.373Z,0.4527
2023-05-18T02:56:48.015Z,0.4516
2023-05-18T02:57:49.626Z,0.4513
2023-05-18T02:58:51.237Z,0.4493
2023-05-18T02:59:52.901Z,0.4500
2023-05-18T03:00:54.441Z,0.4489
2023-05-18T03:01:56.097Z,0.4471
2023-05-18T03:02:57.892Z,0.4473
2023-05-18T03:03:59.527Z,0.4474
2023-05-18T03:05:01.027Z,0.4473
2023-05-18T03:06:02.679Z,0.4472
2023-05-18T03:07:04.319Z,0.4463
2023-05-18T03:08:06.009Z,0.4458
2023-05-18T03:09:07.801Z,0.4457
2023-05-18T03:10:09.365Z,0.4464
2023-05-18T03:11:10.919Z,0.4465
2023-05-18T03:12:12.580Z,0.4459
2023-05-18T03:13:14.185Z,0.4457
2023-05-18T03:14:15.888Z,0.4463
2023-05-18T03:15:17.498Z,0.4457
2023-05-18T03:16:19.215Z,0.4447
2023-05-18T03:17:20.717Z,0.4436
2023-05-18T03:18:22.495Z,0.4436
2023-05-18T03:19:24.936Z,0.4435
2023-05-18T03:20:25.860Z,0.4436
2023-05-18T03:21:27.377Z,0.4441
2023-05-18T03:22:29.046Z,0.4458
2023-05-18T03:23:30.647Z,0.4463
2023-05-18T03:24:32.345Z,0.4453
2023-05-18T03:25:33.966Z,0.4453
2023-05-18T03:26:35.644Z,0.4462
2023-05-18T03:27:37.260Z,0.4469
2023-05-18T03:28:38.910Z,0.4474
2023-05-18T03:29:40.808Z,0.4466
2023-05-18T03:30:42.206Z,0.4480
2023-05-18T03:31:43.906Z,0.4472
2023-05-18T03:32:45.544Z,0.4474
2023-05-18T03:33:47.119Z,0.4463
2023-05-18T03:34:48.807Z,0.4454
2023-05-18T03:35:50.404Z,0.4452
2023-05-18T03:36:52.049Z,0.4452
2023-05-18T03:37:53.648Z,0.4457
2023-05-18T03:38:56.007Z,0.4473
2023-05-18T03:39:57.032Z,0.4484
2023-05-18T03:40:58.711Z,0.4479
2023-05-18T03:42:00.271Z,0.4471
2023-05-18T03:43:01.931Z,0.4463
2023-05-18T03:44:03.564Z,0.4472
2023-05-18T03:45:05.251Z,0.4501
2023-05-18T03:46:06.890Z,0.4513
2023-05-18T03:47:08.498Z,0.4529
2023-05-18T03:48:10.191Z,0.4549
2023-05-18T03:49:12.862Z,0.4553
2023-05-18T03:50:13.825Z,0.4553
2023-05-18T03:51:15.096Z,0.4551
2023-05-18T03:52:16.723Z,0.4547
2023-05-18T03:53:18.438Z,0.4547
2023-05-18T03:54:20.007Z,0.4543
2023-05-18T03:55:21.749Z,0.4536
2023-05-18T03:56:23.351Z,0.4549
2023-05-18T03:57:24.984Z,0.4540
2023-05-18T03:58:26.644Z,0.4532
2023-05-18T03:59:28.245Z,0.4534
2023-05-18T04:00:30.317Z,0.4535
2023-05-18T04:01:31.622Z,0.4539
2023-05-18T04:02:33.352Z,0.4549
2023-05-18T04:03:34.965Z,0.4567
2023-05-18T04:04:36.482Z,0.4578
2023-05-18T04:05:38.139Z,0.4591
2023-05-18T04:06:39.773Z,0.4605
2023-05-18T04:07:41.482Z,0.4596
2023-05-18T04:08:43.084Z,0.4590
2023-05-18T04:09:44.733Z,0.4602
2023-05-18T04:10:46.410Z,0.4605
2023-05-18T04:11:48.012Z,0.4612
2023-05-18T04:12:49.761Z,0.4610
2023-05-18T04:13:51.296Z,0.4610
2023-05-18T04:14:53.847Z,0.4610
2023-05-18T04:15:54.656Z,0.4602
2023-05-18T04:16:56.290Z,0.4593
2023-05-18T04:17:57.895Z,0.4586
2023-05-18T04:18:59.608Z,0.4596
2023-05-18T04:20:01.793Z,0.4592
2023-05-18T04:21:03.873Z,0.4582
2023-05-18T04:22:04.482Z,0.4590
2023-05-18T04:23:06.752Z,0.4596
2023-05-18T04:24:07.726Z,0.4593
2023-05-18T04:25:09.428Z,0.4585
2023-05-18T04:26:11.124Z,0.4573
2023-05-18T04:27:12.702Z,0.4559
2023-05-18T04:28:14.372Z,0.4558
2023-05-18T04:29:16.006Z,0.4566
2023-05-18T04:30:17.633Z,0.4575
2023-05-18T04:31:19.373Z,0.4573
2023-05-18T04:32:21.017Z,0.4581
2023-05-18T04:33:22.575Z,0.4580
2023-05-18T04:34:24.242Z,0.4583
2023-05-18T04:35:25.941Z,0.4595
2023-05-18T04:36:27.559Z,0.4592
2023-05-18T04:37:29.187Z,0.4583
2023-05-18T04:38:30.820Z,0.4572
2023-05-18T04:39:32.490Z,0.4574
2023-05-18T04:40:34.295Z,0.4579
2023-05-18T04:41:35.808Z,0.4581
2023-05-18T04:42:37.438Z,0.4578
2023-05-18T04:43:39.028Z,0.4577
2023-05-18T04:44:40.723Z,0.4576
2023-05-18T04:45:42.382Z,0.4570
2023-05-18T04:46:44.870Z,0.4577
2023-05-18T04:47:45.619Z,0.4565
2023-05-18T04:48:47.251Z,0.4557
2023-05-18T04:49:48.946Z,0.4553
2023-05-18T04:50:50.612Z,0.4564
2023-05-18T04:51:52.331Z,0.4576
2023-05-18T04:52:54.021Z,0.4576
2023-05-18T04:53:55.563Z,0.4570
2023-05-18T04:54:57.119Z,0.4570
2023-05-18T04:55:58.819Z,0.4558
2023-05-18T04:57:00.798Z,0.4575
2023-05-18T04:58:03.191Z,0.4566
2023-05-18T04:59:03.966Z,0.4545
2023-05-18T05:00:05.517Z,0.4524
2023-05-18T05:01:07.267Z,0.4516
2023-05-18T05:02:08.960Z,0.4514
2023-05-18T05:03:10.578Z,0.4512
2023-05-18T05:04:13.145Z,0.4516
2023-05-18T05:05:13.726Z,0.4510
2023-05-18T05:06:15.452Z,0.4510
2023-05-18T05:07:17.083Z,0.4520
2023-05-18T05:08:18.710Z,0.4544
2023-05-18T05:09:20.339Z,0.4539
2023-05-18T05:10:21.976Z,0.4527
2023-05-18T05:11:23.632Z,0.4518
2023-05-18T05:12:25.294Z,0.4505
2023-05-18T05:13:26.837Z,0.4498
2023-05-18T05:14:28.551Z,0.4476
2023-05-18T05:15:30.357Z,0.4411
2023-05-18T05:16:32.043Z,0.4413
2023-05-18T05:17:33.497Z,0.4411
2023-05-18T05:18:35.170Z,0.4399
2023-05-18T05:19:36.718Z,0.4408
2023-05-18T05:20:38.450Z,0.4416
2023-05-18T05:21:40.089Z,0.4410
2023-05-18T05:22:41.742Z,0.4424
2023-05-18T05:23:43.313Z,0.4437
2023-05-18T05:24:45.096Z,0.4430
2023-05-18T05:25:48.544Z,0.4425
2023-05-18T05:26:53.034Z,0.4426
2023-05-18T05:27:54.638Z,0.4421
2023-05-18T05:28:56.306Z,0.4404
2023-05-18T05:29:57.982Z,0.4399
2023-05-18T05:30:59.643Z,0.4390
2023-05-18T05:32:01.386Z,0.4379
2023-05-18T05:33:03.051Z,0.4394
2023-05-18T05:34:04.477Z,0.4414
2023-05-18T05:35:06.226Z,0.4398
2023-05-18T05:36:07.806Z,0.4390
2023-05-18T05:37:09.506Z,0.4402
2023-05-18T05:38:11.112Z,0.4401
2023-05-18T05:39:12.801Z,0.4398
2023-05-18T05:40:14.394Z,0.4416
2023-05-18T05:41:16.145Z,0.4424
2023-05-18T05:42:17.730Z,0.4422
2023-05-18T05:43:19.369Z,0.4422
2023-05-18T05:44:20.942Z,0.4422
2023-05-18T05:45:22.709Z,0.4423
2023-05-18T05:46:24.384Z,0.4414
2023-05-18T05:47:26.043Z,0.4416
2023-05-18T05:48:27.607Z,0.4407
2023-05-18T05:49:29.253Z,0.4406
2023-05-18T05:50:30.874Z,0.4405
2023-05-18T05:51:32.581Z,0.4390
2023-05-18T05:52:34.178Z,0.4388
2023-05-18T05:53:35.841Z,0.4369
2023-05-18T05:54:37.401Z,0.4356
2023-05-18T05:55:39.145Z,0.4365
2023-05-18T05:56:41.731Z,0.4368
2023-05-18T05:57:42.482Z,0.4389
2023-05-18T05:58:43.991Z,0.4412
2023-05-18T05:59:46.724Z,0.4429
2023-05-18T06:00:47.260Z,0.4421
2023-05-18T06:01:49.028Z,0.4414
2023-05-18T06:02:50.886Z,0.4415
2023-05-18T06:03:52.444Z,0.4403
2023-05-18T06:04:54.025Z,0.4407
2023-05-18T06:05:55.734Z,0.4411
2023-05-18T06:06:57.379Z,0.4409
2023-05-18T06:07:58.895Z,0.4407
2023-05-18T06:09:01.506Z,0.4402
2023-05-18T06:10:02.197Z,0.4421
2023-05-18T06:11:03.819Z,0.4415
2023-05-18T06:12:05.456Z,0.4423
2023-05-18T06:13:07.183Z,0.4405
2023-05-18T06:14:08.747Z,0.4392
2023-05-18T06:15:10.458Z,0.4392
2023-05-18T06:16:12.076Z,0.4414
2023-05-18T06:17:13.725Z,0.4423
2023-05-18T06:18:15.392Z,0.4427
2023-05-18T06:19:17.060Z,0.4417
2023-05-18T06:20:18.638Z,0.4429
2023-05-18T06:21:20.306Z,0.4450
2023-05-18T06:22:21.918Z,0.4450
2023-05-18T06:23:23.591Z,0.4452
2023-05-18T06:24:25.232Z,0.4454
2023-05-18T06:25:26.868Z,0.4446
2023-05-18T06:26:28.502Z,0.4452
2023-05-18T06:27:30.174Z,0.4445
2023-05-18T06:28:31.816Z,0.4447
2023-05-18T06:29:33.518Z,0.4442
2023-05-18T06:30:35.084Z,0.4436
2023-05-18T06:31:36.766Z,0.4438
2023-05-18T06:32:38.469Z,0.4447
2023-05-18T06:33:40.027Z,0.4436
2023-05-18T06:34:42.659Z,0.4416
2023-05-18T06:35:43.325Z,0.4412
2023-05-18T06:36:46.103Z,0.4425
2023-05-18T06:37:47.089Z,0.4434
2023-05-18T06:38:48.366Z,0.4426
2023-05-18T06:39:50.065Z,0.4419
2023-05-18T06:40:52.677Z,0.4398
2023-05-18T06:41:53.348Z,0.4390
2023-05-18T06:42:55.026Z,0.4400
2023-05-18T06:43:56.628Z,0.4404
2023-05-18T06:44:58.362Z,0.4406
2023-05-18T06:45:59.956Z,0.4407
2023-05-18T06:47:01.557Z,0.4419
2023-05-18T06:48:03.225Z,0.4420
2023-05-18T06:49:04.937Z,0.4418
2023-05-18T06:50:06.563Z,0.4405
2023-05-18T06:51:08.185Z,0.4424
2023-05-18T06:52:09.834Z,0.4433
2023-05-18T06:53:11.499Z,0.4435
2023-05-18T06:54:13.110Z,0.4445
2023-05-18T06:55:14.823Z,0.4471
2023-05-18T06:56:16.439Z,0.4470
2023-05-18T06:57:17.976Z,0.4481
2023-05-18T06:58:20.107Z,0.4489
2023-05-18T06:59:22.324Z,0.4494
2023-05-18T07:00:23.046Z,0.4475
2023-05-18T07:01:24.708Z,0.4464
2023-05-18T07:02:26.300Z,0.4457
2023-05-18T07:03:27.968Z,0.4455
2023-05-18T07:04:29.579Z,0.4445
2023-05-18T07:05:32.473Z,0.4450
2023-05-18T07:06:32.822Z,0.4445
2023-05-18T07:07:34.579Z,0.4440
2023-05-18T07:08:36.162Z,0.4438
2023-05-18T07:09:37.845Z,0.4442
2023-05-18T07:10:39.541Z,0.4448
2023-05-18T07:11:42.166Z,0.4454
2023-05-18T07:12:42.725Z,0.4461
2023-05-18T07:13:44.426Z,0.4460
2023-05-18T07:14:46.039Z,0.4455
2023-05-18T07:15:48.168Z,0.4446
2023-05-18T07:16:50.220Z,0.4432
2023-05-18T07:17:51.060Z,0.4416
2023-05-18T07:18:52.638Z,0.4414
2023-05-18T07:19:54.281Z,0.4415
2023-05-18T07:20:55.926Z,0.4410
2023-05-18T07:21:57.531Z,0.4407
2023-05-18T07:22:59.186Z,0.4416
2023-05-18T07:24:00.912Z,0.4434
2023-05-18T07:25:02.478Z,0.4423
2023-05-18T07:26:04.241Z,0.4412
2023-05-18T07:27:05.753Z,0.4411
2023-05-18T07:28:07.471Z,0.4417
2023-05-18T07:29:09.062Z,0.4419
2023-05-18T07:30:10.713Z,0.4439
2023-05-18T07:31:12.422Z,0.4433
2023-05-18T07:32:14.053Z,0.4422
2023-05-18T07:33:15.729Z,0.4408
2023-05-18T07:34:17.378Z,0.4385
2023-05-18T07:35:18.955Z,0.4388
2023-05-18T07:36:20.675Z,0.4387
2023-05-18T07:37:22.238Z,0.4387
2023-05-18T07:38:23.861Z,0.4388
2023-05-18T07:39:25.629Z,0.4385
2023-05-18T07:40:27.243Z,0.4412
2023-05-18T07:41:28.941Z,0.4413
2023-05-18T07:42:30.553Z,0.4417
2023-05-18T07:43:32.136Z,0.4435
2023-05-18T07:44:33.785Z,0.4467
2023-05-18T07:45:35.477Z,0.4503
2023-05-18T07:46:37.130Z,0.4515
2023-05-18T07:47:38.786Z,0.4507
2023-05-18T07:48:41.150Z,0.4499
2023-05-18T07:49:42.062Z,0.4502
2023-05-18T07:50:43.675Z,0.4495
2023-05-18T07:51:45.388Z,0.4492
2023-05-18T07:52:47.001Z,0.4488
2023-05-18T07:53:48.598Z,0.4483
2023-05-18T07:54:50.300Z,0.4491
2023-05-18T07:55:51.953Z,0.4486
2023-05-18T07:56:53.606Z,0.4460
2023-05-18T07:57:55.239Z,0.4462
2023-05-18T07:58:56.897Z,0.4468
2023-05-18T07:59:58.477Z,0.4473
2023-05-18T08:01:00.195Z,0.4461
2023-05-18T08:02:01.980Z,0.4452
2023-05-18T08:03:03.553Z,0.4455
2023-05-18T08:04:05.180Z,0.4454
2023-05-18T08:05:06.790Z,0.4448
2023-05-18T08:06:08.431Z,0.4441
2023-05-18T08:07:10.088Z,0.4441
2023-05-18T08:08:11.796Z,0.4437
2023-05-18T08:09:13.342Z,0.4440
2023-05-18T08:10:15.014Z,0.4445
2023-05-18T08:11:17.491Z,0.4426
2023-05-18T08:12:18.276Z,0.4425
2023-05-18T08:13:19.988Z,0.4421
2023-05-18T08:14:21.647Z,0.4414
2023-05-18T08:15:23.231Z,0.4408
2023-05-18T08:16:24.848Z,0.4401
2023-05-18T08:17:26.599Z,0.4397
2023-05-18T08:18:28.192Z,0.4398
2023-05-18T08:19:29.951Z,0.4401
2023-05-18T08:20:31.456Z,0.4401
2023-05-18T08:21:33.199Z,0.4392
2023-05-18T08:22:34.761Z,0.4390
2023-05-18T08:23:36.479Z,0.4381
2023-05-18T08:24:38.013Z,0.4396
2023-05-18T08:25:39.700Z,0.4395
2023-05-18T08:26:41.477Z,0.4403
2023-05-18T08:27:43.099Z,0.4399
2023-05-18T08:28:44.632Z,0.4393
2023-05-18T08:29:46.331Z,0.4398
2023-05-18T08:30:47.927Z,0.4381
2023-05-18T08:31:49.894Z,0.4364
2023-05-18T08:32:51.294Z,0.4359
2023-05-18T08:33:52.983Z,0.4362
2023-05-18T08:34:54.591Z,0.4360
2023-05-18T08:35:56.160Z,0.4372
2023-05-18T08:36:57.821Z,0.4383
2023-05-18T08:37:59.541Z,0.4375
2023-05-18T08:39:01.120Z,0.4378
2023-05-18T08:40:02.758Z,0.4373
2023-05-18T08:41:04.377Z,0.4358
2023-05-18T08:42:06.020Z,0.4326
2023-05-18T08:43:08.063Z,0.4319
2023-05-18T08:44:09.339Z,0.4323
2023-05-18T08:45:10.935Z,0.4311
2023-05-18T08:46:12.700Z,0.4309
2023-05-18T08:47:14.191Z,0.4328
2023-05-18T08:48:16.031Z,0.4340
2023-05-18T08:49:17.592Z,0.4341
2023-05-18T08:50:19.185Z,0.4352
2023-05-18T08:51:20.851Z,0.4357
2023-05-18T08:52:22.498Z,0.4347
2023-05-18T08:53:27.508Z,0.4328
2023-05-18T08:54:25.862Z,0.4331
2023-05-18T08:55:27.508Z,0.4335
2023-05-18T08:56:29.132Z,0.4335
2023-05-18T08:57:30.705Z,0.4317
2023-05-18T08:58:32.501Z,0.4303
2023-05-18T08:59:34.567Z,0.4298
2023-05-18T09:00:35.790Z,0.4319
2023-05-18T09:01:37.315Z,0.4318
2023-05-18T09:02:38.965Z,0.4324
2023-05-18T09:03:40.636Z,0.4325
2023-05-18T09:04:42.662Z,0.4319
2023-05-18T09:05:43.917Z,0.4300
2023-05-18T09:06:46.504Z,0.4308
2023-05-18T09:07:47.201Z,0.4293
2023-05-18T09:08:48.857Z,0.4292
2023-05-18T09:09:50.567Z,0.4295
2023-05-18T09:10:52.072Z,0.4323
2023-05-18T09:11:53.744Z,0.4338
2023-05-18T09:12:55.381Z,0.4356
2023-05-18T09:13:57.075Z,0.4353
2023-05-18T09:14:58.732Z,0.4354
2023-05-18T09:16:00.340Z,0.4356
2023-05-18T09:17:02.020Z,0.4356
2023-05-18T09:18:03.895Z,0.4352
2023-05-18T09:19:05.299Z,0.4335
2023-05-18T09:20:06.961Z,0.4329
2023-05-18T09:21:08.506Z,0.4306
2023-05-18T09:22:10.209Z,0.4322
2023-05-18T09:23:11.813Z,0.4342
2023-05-18T09:24:14.087Z,0.4349
2023-05-18T09:25:15.591Z,0.4367
2023-05-18T09:26:16.785Z,0.4363
2023-05-18T09:27:18.406Z,0.4357
2023-05-18T09:28:20.078Z,0.4366
2023-05-18T09:29:21.774Z,0.4374
2023-05-18T09:30:23.430Z,0.4352
2023-05-18T09:31:25.666Z,0.4351
2023-05-18T09:32:26.689Z,0.4337
2023-05-18T09:33:28.441Z,0.4328
2023-05-18T09:34:30.043Z,0.4325
2023-05-18T09:35:32.347Z,0.4309
2023-05-18T09:36:33.265Z,0.4299
2023-05-18T09:37:34.879Z,0.4289
2023-05-18T09:38:36.561Z,0.4283
2023-05-18T09:39:38.225Z,0.4290
2023-05-18T09:40:40.615Z,0.4292
2023-05-18T09:41:41.487Z,0.4284
2023-05-18T09:42:43.125Z,0.4285
2023-05-18T09:43:44.789Z,0.4284
2023-05-18T09:44:46.508Z,0.4297
2023-05-18T09:45:48.030Z,0.4292
2023-05-18T09:46:49.849Z,0.4293
2023-05-18T09:47:51.459Z,0.4300
2023-05-18T09:48:52.996Z,0.4303
2023-05-18T09:49:55.082Z,0.4326
2023-05-18T09:50:56.331Z,0.4330
2023-05-18T09:51:57.989Z,0.4313
2023-05-18T09:52:59.674Z,0.4310
2023-05-18T09:54:01.254Z,0.4304
2023-05-18T09:55:02.917Z,0.4325
2023-05-18T09:56:04.595Z,0.4330
2023-05-18T09:57:10.185Z,0.4323
2023-05-18T09:58:07.879Z,0.4327
2023-05-18T09:59:09.422Z,0.4339
2023-05-18T10:00:11.152Z,0.4348
2023-05-18T10:01:12.822Z,0.4332
2023-05-18T10:02:14.397Z,0.4320
2023-05-18T10:03:16.098Z,0.4333
2023-05-18T10:04:17.792Z,0.4344
2023-05-18T10:05:19.319Z,0.4319
2023-05-18T10:06:21.050Z,0.4306
2023-05-18T10:07:22.616Z,0.4327
2023-05-18T10:08:25.182Z,0.4340
2023-05-18T10:09:25.969Z,0.4353
2023-05-18T10:10:28.674Z,0.4358
2023-05-18T10:11:29.268Z,0.4358
2023-05-18T10:12:30.892Z,0.4365
2023-05-18T10:13:32.518Z,0.4367
2023-05-18T10:14:34.104Z,0.4375
2023-05-18T10:15:35.776Z,0.4376
2023-05-18T10:16:37.400Z,0.4403
2023-05-18T10:17:39.100Z,0.4409
2023-05-18T10:18:40.701Z,0.4399
2023-05-18T10:19:42.338Z,0.4395
2023-05-18T10:20:44.012Z,0.4393
2023-05-18T10:21:45.613Z,0.4414
2023-05-18T10:22:47.333Z,0.4411
2023-05-18T10:23:48.910Z,0.4391
2023-05-18T10:24:50.573Z,0.4383
2023-05-18T10:25:52.244Z,0.4381
2023-05-18T10:26:55.132Z,0.4391
2023-05-18T10:27:55.482Z,0.4382
2023-05-18T10:28:57.140Z,0.4371
2023-05-18T10:29:58.790Z,0.4359
2023-05-18T10:31:00.577Z,0.4359
2023-05-18T10:32:05.216Z,0.4363
2023-05-18T10:33:07.006Z,0.4356
2023-05-18T10:34:05.474Z,0.4343
2023-05-18T10:35:06.957Z,0.4337
2023-05-18T10:36:08.752Z,0.4349
2023-05-18T10:37:11.868Z,0.4349
2023-05-18T10:38:11.943Z,0.4366
2023-05-18T10:39:13.738Z,0.4365
2023-05-18T10:40:15.304Z,0.4375
2023-05-18T10:41:16.949Z,0.4378
2023-05-18T10:42:18.569Z,0.4378
2023-05-18T10:43:21.321Z,0.4382
2023-05-18T10:44:21.959Z,0.4396
2023-05-18T10:45:23.531Z,0.4400
2023-05-18T10:46:25.315Z,0.4402
2023-05-18T10:47:26.903Z,0.4397
2023-05-18T10:48:28.482Z,0.4391
2023-05-18T10:49:30.116Z,0.4390
2023-05-18T10:50:32.126Z,0.4404
2023-05-18T10:51:33.501Z,0.4388
2023-05-18T10:52:35.055Z,0.4379
2023-05-18T10:53:36.867Z,0.4357
2023-05-18T10:54:39.198Z,0.4368
2023-05-18T10:55:39.969Z,0.4368
2023-05-18T10:56:41.717Z,0.4383
2023-05-18T10:57:43.297Z,0.4393
2023-05-18T10:58:44.942Z,0.4392
2023-05-18T10:59:48.194Z,0.4381
2023-05-18T11:00:48.241Z,0.4364
2023-05-18T11:01:50.031Z,0.4346
2023-05-18T11:02:51.589Z,0.4340
2023-05-18T11:03:53.112Z,0.4338
2023-05-18T11:04:54.785Z,0.4348
2023-05-18T11:05:56.453Z,0.4352
2023-05-18T11:06:58.157Z,0.4355
2023-05-18T11:07:59.696Z,0.4351
2023-05-18T11:09:04.796Z,0.4335
2023-05-18T11:10:04.174Z,0.4325
2023-05-18T11:11:04.805Z,0.4326
2023-05-18T11:12:06.438Z,0.4331
2023-05-18T11:13:08.167Z,0.4325
2023-05-18T11:14:10.717Z,0.4305
2023-05-18T11:15:11.299Z,0.4290
2023-05-18T11:16:13.158Z,0.4300
2023-05-18T11:17:14.701Z,0.4302
2023-05-18T11:18:16.337Z,0.4298
2023-05-18T11:19:19.118Z,0.4289
2023-05-18T11:20:19.515Z,0.4275
2023-05-18T11:21:21.274Z,0.4288
2023-05-18T11:22:23.003Z,0.4299
2023-05-18T11:23:24.869Z,0.4299
2023-05-18T11:24:26.417Z,0.4286
2023-05-18T11:25:27.890Z,0.4280
2023-05-18T11:26:29.589Z,0.4278
2023-05-18T11:27:31.174Z,0.4278
2023-05-18T11:28:32.834Z,0.4280
2023-05-18T11:29:34.379Z,0.4281
2023-05-18T11:30:36.357Z,0.4284
2023-05-18T11:31:37.799Z,0.4281
2023-05-18T11:32:39.504Z,0.4288
2023-05-18T11:33:42.005Z,0.4284
2023-05-18T11:34:42.665Z,0.4287
2023-05-18T11:35:44.359Z,0.4285
2023-05-18T11:36:45.971Z,0.4281
2023-05-18T11:37:47.621Z,0.4282
2023-05-18T11:38:49.402Z,0.4295
2023-05-18T11:39:58.549Z,0.4307
2023-05-18T11:40:52.449Z,0.4321
2023-05-18T11:41:54.065Z,0.4328
2023-05-18T11:42:55.845Z,0.4334
2023-05-18T11:43:57.443Z,0.4348
2023-05-18T11:44:59.055Z,0.4326
2023-05-18T11:46:00.698Z,0.4336
2023-05-18T11:47:02.342Z,0.4347
2023-05-18T11:48:04.135Z,0.4353
2023-05-18T11:49:05.757Z,0.4348
2023-05-18T11:50:07.276Z,0.4356
2023-05-18T11:51:08.936Z,0.4357
2023-05-18T11:52:10.572Z,0.4351
2023-05-18T11:53:12.244Z,0.4350
2023-05-18T11:54:14.077Z,0.4342
2023-05-18T11:55:15.608Z,0.4334
2023-05-18T11:56:17.143Z,0.4343
2023-05-18T11:57:18.927Z,0.4350
2023-05-18T11:58:20.558Z,0.4352
2023-05-18T11:59:22.174Z,0.4361
2023-05-18T12:00:23.789Z,0.4371
2023-05-18T12:01:25.451Z,0.4366
2023-05-18T12:02:27.202Z,0.4356
2023-05-18T12:03:28.895Z,0.4355
2023-05-18T12:04:30.441Z,0.4352
2023-05-18T12:05:32.044Z,0.4341
2023-05-18T12:06:33.776Z,0.4337
2023-05-18T12:07:35.352Z,0.4330
2023-05-18T12:08:37.130Z,0.4337
2023-05-18T12:09:38.659Z,0.4328
2023-05-18T12:10:40.221Z,0.4314
2023-05-18T12:11:41.869Z,0.4305
2023-05-18T12:12:43.534Z,0.4316
2023-05-18T12:13:45.298Z,0.4331
2023-05-18T12:14:46.853Z,0.4349
2023-05-18T12:15:48.487Z,0.4346
2023-05-18T12:16:50.147Z,0.4356
2023-05-18T12:17:51.815Z,0.4352
2023-05-18T12:18:53.575Z,0.4349
2023-05-18T12:19:55.101Z,0.4334
2023-05-18T12:20:56.732Z,0.4330
2023-05-18T12:21:59.038Z,0.4335
2023-05-18T12:23:00.098Z,0.4334
2023-05-18T12:24:02.648Z,0.4333
2023-05-18T12:25:03.410Z,0.4331
2023-05-18T12:26:05.594Z,0.4323
2023-05-18T12:27:07.552Z,0.4315
2023-05-18T12:28:08.302Z,0.4327
2023-05-18T12:29:09.967Z,0.4331
2023-05-18T12:30:11.646Z,0.4331
2023-05-18T12:31:13.274Z,0.4333
2023-05-18T12:32:14.862Z,0.4333
2023-05-18T12:33:16.698Z,0.4322
2023-05-18T12:34:18.184Z,0.4340
2023-05-18T12:35:19.871Z,0.4356
2023-05-18T12:36:21.509Z,0.4365
2023-05-18T12:37:28.027Z,0.4372
2023-05-18T12:38:24.770Z,0.4359
2023-05-18T12:39:28.657Z,0.4360
2023-05-18T12:40:28.106Z,0.4351
2023-05-18T12:41:29.758Z,0.4339
2023-05-18T12:42:31.373Z,0.4331
2023-05-18T12:43:33.017Z,0.4328
2023-05-18T12:44:34.835Z,0.4333
2023-05-18T12:45:36.326Z,0.4345
2023-05-18T12:46:38.021Z,0.4340
2023-05-18T12:47:39.657Z,0.4333
2023-05-18T12:48:41.349Z,0.4324